Time;durP1;ratioP1;P1;durP2;ratioP2;P2;SDS_P1;SDS_P2;PMS_P1;PMS_P2;Temp;Humidity;BMP_temperature;BMP_pressure;BME280_temperature;BME280_humidity;BME280_pressure;Samples;Min_cycle;Max_cycle;Signal;HPM_P1;HPM_P2
2022/09/08 00:00:32;;;;;;;9.47;6.87;;;18.60;99.90;;;;;;5044619;28;20853;-66
2022/09/08 00:03:02;;;;;;;8.07;7.27;;;18.50;99.90;;;;;;5047548;28;20448;-66
2022/09/08 00:05:30;;;;;;;7.30;6.60;;;18.50;99.90;;;;;;5044912;28;20444;-65
2022/09/08 00:07:59;;;;;;;8.33;7.53;;;18.50;99.90;;;;;;5047227;28;20443;-66
2022/09/08 00:10:26;;;;;;;8.97;7.57;;;18.50;99.90;;;;;;5046987;28;20455;-66
2022/09/08 00:12:54;;;;;;;8.77;7.27;;;18.60;99.90;;;;;;5046066;28;20949;-66
2022/09/08 00:15:21;;;;;;;7.50;6.90;;;18.60;99.90;;;;;;5047350;28;20617;-66
2022/09/08 00:17:48;;;;;;;7.77;6.40;;;18.60;99.90;;;;;;5047335;28;20451;-65
2022/09/08 00:20:15;;;;;;;8.03;7.27;;;18.60;99.90;;;;;;5047383;28;20491;-66
2022/09/08 00:22:42;;;;;;;10.20;8.30;;;18.60;99.90;;;;;;5046782;28;20479;-66
2022/09/08 00:25:10;;;;;;;10.73;7.30;;;18.60;99.90;;;;;;5047141;28;20459;-66
2022/09/08 00:27:37;;;;;;;10.90;7.33;;;18.50;99.90;;;;;;5046877;28;20454;-66
2022/09/08 00:30:05;;;;;;;9.27;8.30;;;18.50;99.90;;;;;;5047337;28;20436;-66
2022/09/08 00:32:31;;;;;;;9.53;8.60;;;18.40;99.90;;;;;;5046613;28;20464;-66
2022/09/08 00:35:00;;;;;;;11.63;7.60;;;18.40;99.90;;;;;;5046838;28;20458;-66
2022/09/08 00:37:30;;;;;;;8.40;7.30;;;18.40;99.90;;;;;;5046158;28;20444;-65
2022/09/08 00:39:56;;;;;;;8.40;7.50;;;18.40;99.90;;;;;;5046665;28;20518;-66
2022/09/08 00:42:26;;;;;;;8.67;7.93;;;18.40;99.90;;;;;;5046570;28;20467;-66
2022/09/08 00:44:53;;;;;;;8.50;7.70;;;18.40;99.90;;;;;;5046902;28;20930;-66
2022/09/08 00:47:24;;;;;;;9.57;7.67;;;18.40;99.90;;;;;;5046386;28;20505;-65
2022/09/08 00:49:56;;;;;;;10.27;8.50;;;18.40;99.90;;;;;;5047132;28;20527;-66
2022/09/08 00:52:25;;;;;;;9.87;8.90;;;18.40;99.90;;;;;;5046068;28;20567;-66
2022/09/08 00:54:53;;;;;;;9.20;8.30;;;18.30;99.90;;;;;;5046144;28;20490;-66
2022/09/08 00:57:20;;;;;;;9.33;7.77;;;18.30;99.90;;;;;;5046318;28;20455;-66
2022/09/08 00:59:49;;;;;;;10.40;9.40;;;18.30;99.90;;;;;;5047782;28;21001;-66
2022/09/08 01:02:23;;;;;;;9.37;8.23;;;18.30;99.90;;;;;;5047558;28;20549;-66
2022/09/08 01:04:53;;;;;;;8.87;7.57;;;18.40;99.90;;;;;;5047927;28;20855;-65
2022/09/08 01:13:08;;;;;;;8.60;7.77;;;18.40;99.90;;;;;;5048509;28;20426;-66
2022/09/08 01:15:36;;;;;;;8.37;7.37;;;18.50;99.90;;;;;;5049145;28;20440;-66
2022/09/08 01:18:03;;;;;;;10.50;9.10;;;18.40;99.90;;;;;;5049088;28;20446;-66
2022/09/08 01:20:38;;;;;;;15.73;9.13;;;18.50;99.90;;;;;;5048871;28;20495;-66
2022/09/08 01:23:58;;;;;;;12.37;8.67;;;18.60;99.90;;;;;;5050097;28;20494;-66
2022/09/08 01:26:46;;;;;;;10.43;9.43;;;18.50;99.90;;;;;;4990492;28;20446;-66
2022/09/08 01:29:16;;;;;;;8.80;8.00;;;18.50;99.90;;;;;;4991439;28;20439;-66
2022/09/08 01:31:45;;;;;;;10.10;9.20;;;18.50;99.90;;;;;;5027693;28;20468;-66
2022/09/08 01:34:12;;;;;;;9.57;8.70;;;18.50;99.90;;;;;;5053034;28;20436;-66
2022/09/08 01:36:39;;;;;;;9.50;8.60;;;18.50;99.90;;;;;;5052384;28;20934;-66
2022/09/08 01:39:06;;;;;;;9.23;8.00;;;18.50;99.90;;;;;;5053191;28;20533;-66
2022/09/08 01:41:33;;;;;;;9.03;8.10;;;18.40;99.90;;;;;;5053144;28;20475;-66
2022/09/08 01:43:59;;;;;;;8.13;7.33;;;18.40;99.90;;;;;;5052833;28;20451;-66
2022/09/08 01:46:29;;;;;;;13.70;8.90;;;18.40;99.90;;;;;;5053066;28;20452;-66
2022/09/08 01:48:56;;;;;;;9.70;8.80;;;18.30;99.90;;;;;;5053140;28;20436;-66
2022/09/08 01:51:23;;;;;;;10.07;9.10;;;18.20;99.90;;;;;;5053094;28;20467;-66
2022/09/08 01:53:50;;;;;;;10.87;9.90;;;18.20;99.90;;;;;;5052991;28;20454;-66
2022/09/08 01:56:16;;;;;;;10.60;8.33;;;18.10;99.90;;;;;;5053020;28;20444;-66
2022/09/08 01:58:43;;;;;;;9.73;7.57;;;18.10;99.90;;;;;;5052895;28;20459;-66
2022/09/08 02:01:10;;;;;;;8.10;7.30;;;18.20;99.90;;;;;;5052809;28;20471;-66
2022/09/08 02:03:38;;;;;;;8.30;7.33;;;18.20;99.90;;;;;;5052668;28;20478;-66
2022/09/08 02:06:05;;;;;;;8.13;7.23;;;18.10;99.90;;;;;;5052892;28;21021;-66
2022/09/08 02:08:32;;;;;;;7.93;7.03;;;18.10;99.90;;;;;;5052609;28;20444;-66
2022/09/08 02:11:00;;;;;;;7.90;7.20;;;18.00;99.90;;;;;;5052751;28;20490;-66
2022/09/08 02:13:27;;;;;;;8.87;8.10;;;18.00;99.90;;;;;;5053015;28;20448;-66
2022/09/08 02:15:59;;;;;;;9.97;8.93;;;17.90;99.90;;;;;;5053035;28;20451;-66
2022/09/08 02:18:29;;;;;;;8.57;7.77;;;17.90;99.90;;;;;;5053066;28;20446;-66
2022/09/08 02:21:08;;;;;;;9.20;8.50;;;17.90;99.90;;;;;;5052719;28;20483;-66
2022/09/08 02:23:36;;;;;;;9.47;8.40;;;17.90;99.90;;;;;;5052015;28;20451;-66
2022/09/08 02:26:04;;;;;;;9.83;9.03;;;18.00;99.90;;;;;;5051887;28;20517;-66
2022/09/08 02:28:31;;;;;;;11.10;10.10;;;18.00;99.90;;;;;;5052369;28;20448;-66
2022/09/08 02:30:59;;;;;;;10.30;9.30;;;18.00;99.90;;;;;;5052244;28;20475;-66
2022/09/08 02:33:27;;;;;;;12.63;8.53;;;18.00;99.90;;;;;;5051976;28;20448;-66
2022/09/08 02:35:54;;;;;;;8.90;8.07;;;18.00;99.90;;;;;;5051167;28;20502;-66
2022/09/08 02:38:23;;;;;;;10.00;9.00;;;18.00;99.90;;;;;;5052081;28;20439;-66
2022/09/08 02:40:50;;;;;;;10.03;9.10;;;18.00;99.90;;;;;;5052179;28;20552;-66
2022/09/08 02:43:18;;;;;;;9.53;8.73;;;18.00;99.90;;;;;;5051933;28;20440;-66
2022/09/08 02:45:46;;;;;;;9.93;8.93;;;17.90;99.90;;;;;;5052061;28;20474;-66
2022/09/08 02:48:12;;;;;;;7.97;7.27;;;17.90;99.90;;;;;;5051764;28;20452;-66
2022/09/08 02:50:39;;;;;;;6.50;5.80;;;17.90;99.90;;;;;;5051720;28;20471;-66
2022/09/08 02:53:06;;;;;;;5.40;4.90;;;17.80;99.90;;;;;;5051946;28;20447;-66
2022/09/08 02:55:38;;;;;;;5.30;4.80;;;17.80;99.90;;;;;;5052124;28;20440;-66
2022/09/08 02:58:07;;;;;;;6.07;5.13;;;17.80;99.90;;;;;;5051783;28;20459;-66
2022/09/08 03:00:34;;;;;;;5.27;4.87;;;17.70;99.90;;;;;;5052045;28;20914;-66
2022/09/08 03:03:01;;;;;;;4.70;3.50;;;17.70;99.90;;;;;;5051658;28;20452;-66
2022/09/08 03:05:28;;;;;;;4.33;3.70;;;17.70;99.90;;;;;;5051635;28;20444;-66
2022/09/08 03:07:55;;;;;;;5.40;3.87;;;17.70;99.90;;;;;;5051530;28;20471;-66
2022/09/08 03:10:23;;;;;;;4.40;3.00;;;17.70;99.90;;;;;;5051695;28;20444;-66
2022/09/08 03:12:52;;;;;;;3.20;2.90;;;17.70;99.90;;;;;;5051092;28;20444;-66
2022/09/08 03:15:19;;;;;;;3.17;2.87;;;17.70;99.90;;;;;;5051452;28;20493;-66
2022/09/08 03:17:46;;;;;;;3.20;2.90;;;17.70;99.90;;;;;;5051408;28;20440;-66
2022/09/08 03:20:14;;;;;;;3.90;3.57;;;17.70;99.90;;;;;;5051685;28;20493;-66
2022/09/08 03:22:40;;;;;;;3.27;2.97;;;17.70;99.90;;;;;;5051382;28;20516;-66
2022/09/08 03:25:09;;;;;;;4.43;2.90;;;17.70;99.90;;;;;;5051254;28;20466;-66
2022/09/08 03:27:36;;;;;;;3.00;2.80;;;17.60;99.90;;;;;;5051169;28;20979;-66
2022/09/08 03:30:05;;;;;;;3.60;3.30;;;17.60;99.90;;;;;;5051234;28;20443;-66
2022/09/08 03:32:33;;;;;;;3.50;3.20;;;17.70;99.90;;;;;;5050577;28;20476;-66
2022/09/08 03:35:00;;;;;;;3.30;3.00;;;17.70;99.90;;;;;;5051373;28;20444;-66
2022/09/08 03:37:27;;;;;;;3.00;2.80;;;17.70;99.90;;;;;;5051441;28;20440;-66
2022/09/08 03:39:54;;;;;;;3.20;2.90;;;17.70;99.90;;;;;;5051118;28;20484;-66
2022/09/08 03:42:21;;;;;;;4.57;3.03;;;17.70;99.90;;;;;;5050570;28;20467;-66
2022/09/08 03:44:48;;;;;;;2.90;2.70;;;17.70;99.90;;;;;;5050873;28;20938;-66
2022/09/08 03:47:16;;;;;;;3.50;2.47;;;17.70;99.90;;;;;;5050926;28;20452;-66
2022/09/08 03:49:43;;;;;;;3.10;2.23;;;17.70;99.90;;;;;;5051325;28;20444;-66
2022/09/08 03:52:10;;;;;;;3.00;2.70;;;17.60;99.90;;;;;;5050670;28;20479;-66
2022/09/08 03:54:48;;;;;;;2.63;2.40;;;17.60;99.90;;;;;;5050835;28;20447;-65
2022/09/08 03:57:16;;;;;;;3.00;2.57;;;17.70;99.90;;;;;;5050972;28;20451;-65
2022/09/08 03:59:43;;;;;;;3.27;2.70;;;17.60;99.90;;;;;;5050417;28;20480;-65
2022/09/08 04:02:11;;;;;;;4.50;3.03;;;17.60;99.90;;;;;;5050388;28;20837;-65
2022/09/08 04:04:39;;;;;;;3.53;2.53;;;17.60;99.90;;;;;;5050793;28;20451;-65
2022/09/08 04:07:07;;;;;;;2.97;2.17;;;17.60;99.90;;;;;;5050581;28;20818;-65
2022/09/08 04:09:34;;;;;;;3.07;2.67;;;17.60;99.90;;;;;;5050538;28;20445;-65
2022/09/08 04:12:01;;;;;;;3.50;2.50;;;17.50;99.90;;;;;;5049805;28;20475;-65
2022/09/08 04:14:28;;;;;;;2.50;2.30;;;17.50;99.90;;;;;;5050792;28;20451;-65
2022/09/08 04:16:55;;;;;;;2.47;2.27;;;17.50;99.90;;;;;;5050367;28;20451;-65
2022/09/08 04:19:22;;;;;;;2.60;2.23;;;17.40;99.90;;;;;;5050459;28;20926;-65
2022/09/08 04:21:50;;;;;;;2.10;2.00;;;17.40;99.90;;;;;;5050089;28;20997;-65
2022/09/08 04:24:18;;;;;;;3.83;2.37;;;17.40;99.90;;;;;;5049160;28;20471;-65
2022/09/08 04:26:45;;;;;;;2.50;2.30;;;17.30;99.90;;;;;;5049212;28;20455;-65
2022/09/08 04:29:11;;;;;;;3.70;2.50;;;17.30;99.90;;;;;;5050254;28;20452;-65
2022/09/08 04:31:38;;;;;;;2.43;2.23;;;17.40;99.90;;;;;;5049840;28;20464;-65
2022/09/08 04:34:05;;;;;;;2.23;2.00;;;17.30;99.90;;;;;;5049629;28;20673;-65
2022/09/08 04:36:32;;;;;;;4.00;2.67;;;17.30;99.90;;;;;;5049757;28;21010;-65
2022/09/08 04:39:00;;;;;;;4.03;2.20;;;17.30;99.90;;;;;;5049705;28;20811;-65
2022/09/08 04:41:30;;;;;;;2.33;2.13;;;17.30;99.90;;;;;;5049826;28;20494;-65
2022/09/08 04:44:00;;;;;;;2.60;2.40;;;17.20;99.90;;;;;;5049523;28;20452;-65
2022/09/08 04:46:27;;;;;;;2.23;2.00;;;17.20;99.90;;;;;;5050003;28;20543;-65
2022/09/08 04:48:54;;;;;;;2.40;2.20;;;17.20;99.90;;;;;;5049673;28;20474;-65
2022/09/08 04:51:21;;;;;;;3.03;2.30;;;17.20;99.90;;;;;;5049589;28;20463;-65
2022/09/08 04:53:51;;;;;;;3.23;2.17;;;17.20;99.90;;;;;;5049683;28;20454;-65
2022/09/08 04:56:21;;;;;;;2.57;2.30;;;17.20;99.90;;;;;;5049710;28;21011;-65
2022/09/08 04:58:47;;;;;;;3.23;2.37;;;17.20;99.90;;;;;;5048974;28;20444;-65
2022/09/08 05:01:18;;;;;;;2.00;1.80;;;17.20;99.90;;;;;;5049572;28;20479;-65
2022/09/08 05:03:44;;;;;;;2.93;2.53;;;17.20;99.90;;;;;;5049481;28;21045;-65
2022/09/08 05:06:14;;;;;;;2.17;1.97;;;17.10;99.90;;;;;;5049681;28;20455;-65
2022/09/08 05:08:42;;;;;;;4.40;2.00;;;17.10;99.90;;;;;;5049477;28;20968;-65
2022/09/08 05:11:09;;;;;;;3.10;2.37;;;17.10;99.90;;;;;;5049759;28;20460;-65
2022/09/08 05:13:37;;;;;;;2.97;2.30;;;17.10;99.90;;;;;;5049221;28;20455;-65
2022/09/08 05:16:05;;;;;;;2.70;2.20;;;17.10;99.90;;;;;;5049383;28;20460;-65
2022/09/08 05:18:32;;;;;;;2.03;1.80;;;17.10;99.90;;;;;;5049993;28;20447;-65
2022/09/08 05:20:59;;;;;;;2.20;2.00;;;17.10;99.90;;;;;;5049432;28;20494;-65
2022/09/08 05:23:26;;;;;;;3.27;2.33;;;17.10;99.90;;;;;;5049252;28;20459;-65
2022/09/08 05:25:57;;;;;;;2.87;2.10;;;17.10;99.90;;;;;;5049190;28;20451;-65
2022/09/08 05:28:24;;;;;;;2.33;2.13;;;17.10;99.90;;;;;;5049266;28;20514;-65
2022/09/08 05:30:53;;;;;;;2.07;1.87;;;17.10;99.90;;;;;;5049127;28;20482;-65
2022/09/08 05:33:20;;;;;;;4.23;2.30;;;17.20;99.90;;;;;;5049099;28;20452;-65
2022/09/08 05:35:47;;;;;;;2.83;2.07;;;17.20;99.90;;;;;;5049506;28;20452;-65
2022/09/08 05:38:15;;;;;;;2.40;2.10;;;17.20;99.90;;;;;;5049397;28;20450;-65
2022/09/08 05:40:42;;;;;;;1.93;1.73;;;17.10;99.90;;;;;;5049491;28;20483;-65
2022/09/08 05:43:08;;;;;;;3.43;2.20;;;17.20;99.90;;;;;;5048971;28;20440;-65
2022/09/08 05:45:36;;;;;;;4.43;2.27;;;17.10;99.90;;;;;;5049760;28;20459;-65
2022/09/08 05:48:04;;;;;;;2.43;2.23;;;17.10;99.90;;;;;;5049391;28;20444;-65
2022/09/08 05:50:34;;;;;;;3.43;2.00;;;17.10;99.90;;;;;;5049290;28;20460;-65
2022/09/08 05:53:01;;;;;;;3.10;1.70;;;17.10;99.90;;;;;;5048875;28;20451;-65
2022/09/08 05:55:29;;;;;;;3.53;1.67;;;17.10;99.90;;;;;;5049050;28;20448;-65
2022/09/08 05:57:55;;;;;;;2.57;1.77;;;17.10;99.90;;;;;;5048998;28;20451;-65
2022/09/08 06:00:23;;;;;;;3.30;2.10;;;17.10;99.90;;;;;;5049093;28;21016;-65
2022/09/08 06:02:50;;;;;;;3.50;1.87;;;17.10;99.90;;;;;;5048753;28;20463;-65
2022/09/08 06:05:19;;;;;;;2.70;2.00;;;17.10;99.90;;;;;;5049150;28;20450;-65
2022/09/08 06:07:46;;;;;;;3.23;2.73;;;17.10;99.90;;;;;;5048898;28;20458;-65
2022/09/08 06:10:13;;;;;;;3.03;2.50;;;17.10;99.90;;;;;;5051924;28;20439;-65
2022/09/08 06:12:40;;;;;;;2.50;1.77;;;17.10;99.90;;;;;;5052104;28;20448;-66
2022/09/08 06:15:08;;;;;;;2.30;2.00;;;17.10;99.90;;;;;;5052805;28;20439;-66
2022/09/08 06:17:35;;;;;;;4.87;2.90;;;17.10;99.90;;;;;;5052686;28;20447;-66
2022/09/08 06:20:03;;;;;;;4.27;3.00;;;17.10;99.90;;;;;;5052384;28;20443;-67
2022/09/08 06:22:32;;;;;;;3.67;2.43;;;17.10;99.90;;;;;;5052264;28;20474;-66
2022/09/08 06:24:59;;;;;;;2.20;1.70;;;17.10;99.90;;;;;;5052247;28;20513;-66
2022/09/08 06:27:39;;;;;;;3.23;2.43;;;17.10;99.90;;;;;;5052564;28;20791;-65
2022/09/08 06:30:10;;;;;;;4.60;1.83;;;17.00;99.90;;;;;;5051728;28;20448;-66
2022/09/08 06:32:40;;;;;;;2.13;1.87;;;17.00;99.90;;;;;;5041106;28;20444;-66
2022/09/08 06:35:12;;;;;;;3.27;2.50;;;17.00;99.90;;;;;;5042332;28;21123;-65
2022/09/08 06:37:47;;;;;;;4.73;2.60;;;17.10;99.90;;;;;;5043094;28;20456;-65
2022/09/08 06:40:20;;;;;;;2.60;2.00;;;17.10;99.90;;;;;;5046312;28;20455;-66
2022/09/08 06:42:53;;;;;;;3.00;2.10;;;17.10;99.90;;;;;;5048409;28;20821;-66
2022/09/08 06:45:24;;;;;;;2.00;1.73;;;17.10;99.90;;;;;;5049186;28;20455;-66
2022/09/08 06:48:00;;;;;;;3.80;1.93;;;17.10;99.90;;;;;;5050065;28;20832;-65
2022/09/08 06:50:28;;;;;;;2.27;1.87;;;17.10;99.90;;;;;;5048421;28;20937;-67
2022/09/08 06:52:58;;;;;;;1.80;1.70;;;17.10;99.90;;;;;;5048253;28;20538;-65
2022/09/08 06:55:33;;;;;;;1.80;1.60;;;17.00;99.90;;;;;;5051791;28;20448;-65
2022/09/08 06:58:12;;;;;;;2.67;2.17;;;17.00;99.90;;;;;;5051845;28;20791;-65
2022/09/08 07:00:45;;;;;;;1.97;1.67;;;16.90;99.90;;;;;;5051670;28;20484;-65
2022/09/08 07:03:27;;;;;;;1.57;1.27;;;16.90;99.90;;;;;;5051540;28;20440;-64
2022/09/08 07:06:02;;;;;;;1.60;1.30;;;16.90;99.90;;;;;;5051667;28;20443;-64
2022/09/08 07:09:02;;;;;;;2.73;1.00;;;16.90;99.90;;;;;;5051491;28;20444;-64
2022/09/08 07:11:52;;;;;;;1.37;1.20;;;16.80;99.90;;;;;;5041141;28;20460;-65
2022/09/08 07:14:36;;;;;;;1.27;1.10;;;16.80;99.90;;;;;;5044267;28;20444;-65
2022/09/08 07:17:06;;;;;;;2.33;1.20;;;16.80;99.90;;;;;;5050611;28;20518;-65
2022/09/08 07:19:43;;;;;;;1.00;0.90;;;16.80;99.90;;;;;;5039050;28;20453;-65
2022/09/08 07:22:21;;;;;;;1.27;1.10;;;16.90;99.90;;;;;;5048409;28;20498;-65
2022/09/08 07:24:51;;;;;;;1.93;0.90;;;16.90;99.90;;;;;;5050290;28;20988;-65
2022/09/08 07:27:19;;;;;;;1.83;1.30;;;16.90;99.90;;;;;;5050246;28;20938;-64
2022/09/08 07:29:49;;;;;;;2.47;1.40;;;17.00;99.90;;;;;;5039244;28;20987;-65
2022/09/08 07:32:21;;;;;;;1.33;1.00;;;17.10;99.90;;;;;;5042059;28;20468;-65
2022/09/08 07:34:53;;;;;;;2.67;1.00;;;17.20;99.90;;;;;;5040963;28;20990;-65
2022/09/08 07:37:24;;;;;;;1.60;1.00;;;17.20;99.90;;;;;;5038377;28;20451;-65
2022/09/08 07:39:56;;;;;;;2.13;1.20;;;17.30;99.90;;;;;;5038111;28;20453;-65
2022/09/08 07:42:24;;;;;;;3.23;1.00;;;17.40;99.90;;;;;;5039912;28;20491;-66
2022/09/08 07:44:57;;;;;;;2.60;1.40;;;17.50;99.90;;;;;;5038419;28;20457;-65
2022/09/08 07:47:35;;;;;;;1.57;1.13;;;17.60;99.90;;;;;;5039710;28;20444;-64
2022/09/08 07:50:13;;;;;;;1.30;0.90;;;17.70;99.90;;;;;;5040326;28;20455;-64
2022/09/08 07:52:45;;;;;;;2.90;1.20;;;17.70;99.90;;;;;;5040399;28;20451;-65
2022/09/08 07:55:23;;;;;;;4.80;1.43;;;17.70;99.90;;;;;;5041655;28;20447;-65
2022/09/08 07:57:59;;;;;;;2.20;1.30;;;17.70;99.90;;;;;;5040734;28;20467;-67
2022/09/08 08:00:36;;;;;;;2.13;0.90;;;17.80;99.90;;;;;;5042704;28;20454;-64
2022/09/08 08:03:22;;;;;;;1.65;1.08;;;18.00;99.90;;;;;;5044043;28;20447;-65
2022/09/08 08:05:52;;;;;;;2.33;1.00;;;18.20;99.90;;;;;;5045577;28;20212;-66
2022/09/08 08:08:27;;;;;;;1.20;0.93;;;18.30;99.90;;;;;;5042733;28;20445;-65
2022/09/08 08:11:03;;;;;;;2.77;1.10;;;18.50;99.90;;;;;;5051853;28;20471;-64
2022/09/08 08:13:45;;;;;;;1.30;0.80;;;18.70;99.90;;;;;;5046875;28;20933;-64
2022/09/08 08:16:14;;;;;;;2.17;0.83;;;18.90;99.90;;;;;;5049982;28;20448;-65
2022/09/08 08:18:53;;;;;;;2.00;1.10;;;18.90;99.90;;;;;;5050333;28;20447;-65
2022/09/08 08:21:23;;;;;;;0.90;0.80;;;18.70;99.90;;;;;;5049897;28;20479;-64
2022/09/08 08:23:59;;;;;;;1.40;0.80;;;18.50;99.90;;;;;;5049836;28;20452;-65
2022/09/08 08:26:35;;;;;;;2.73;0.97;;;18.50;99.90;;;;;;5047921;28;20451;-65
2022/09/08 08:29:23;;;;;;;1.70;0.90;;;18.50;99.90;;;;;;5048001;28;20459;-64
2022/09/08 08:31:57;;;;;;;2.97;1.00;;;18.90;99.90;;;;;;5042255;28;20460;-64
2022/09/08 08:34:28;;;;;;;1.27;0.90;;;19.00;99.90;;;;;;5049688;28;20435;-64
2022/09/08 08:37:01;;;;;;;3.90;1.00;;;19.10;99.90;;;;;;5049930;28;20532;-64
2022/09/08 08:39:29;;;;;;;1.20;0.80;;;19.10;99.90;;;;;;5046963;28;20453;-65
2022/09/08 08:42:14;;;;;;;1.53;0.80;;;19.00;99.90;;;;;;5042296;28;20624;-64
2022/09/08 08:44:56;;;;;;;1.40;0.80;;;19.20;99.90;;;;;;5042204;28;20538;-66
2022/09/08 08:47:44;;;;;;;1.80;0.83;;;19.30;99.90;;;;;;5043147;28;20440;-65
2022/09/08 08:50:49;;;;;;;2.40;1.77;;;19.50;99.90;;;;;;5047381;28;20463;-65
2022/09/08 08:53:43;;;;;;;1.40;1.00;;;19.50;99.90;;;;;;5033204;28;20456;-65
2022/09/08 08:56:17;;;;;;;0.90;0.80;;;19.60;99.90;;;;;;5041071;28;20922;-65
2022/09/08 08:59:00;;;;;;;1.43;0.80;;;19.50;99.90;;;;;;5045329;28;20546;-67
2022/09/08 09:02:08;;;;;;;1.00;0.80;;;19.50;99.90;;;;;;5038846;28;20521;-65
2022/09/08 09:04:54;;;;;;;1.20;1.03;;;19.40;99.90;;;;;;5029948;28;20458;-66
2022/09/08 09:07:45;;;;;;;1.87;1.00;;;19.50;99.90;;;;;;5042495;28;20452;-65
2022/09/08 09:10:41;;;;;;;1.10;0.90;;;19.60;99.90;;;;;;5045454;28;20471;-65
2022/09/08 09:13:29;;;;;;;1.53;1.07;;;19.80;99.90;;;;;;5045102;28;20440;-65
2022/09/08 09:16:13;;;;;;;1.73;0.80;;;20.00;99.90;;;;;;5043205;28;20448;-65
2022/09/08 09:19:09;;;;;;;1.50;0.70;;;20.10;99.90;;;;;;5045365;28;20440;-64
2022/09/08 09:21:52;;;;;;;0.90;0.70;;;20.10;99.90;;;;;;5040645;28;20502;-65
2022/09/08 09:24:39;;;;;;;2.20;1.03;;;20.10;99.90;;;;;;5042052;28;20460;-64
2022/09/08 09:27:17;;;;;;;1.00;0.80;;;20.10;99.90;;;;;;5045425;28;20443;-65
2022/09/08 09:29:44;;;;;;;1.00;0.90;;;20.10;99.90;;;;;;5043033;28;20451;-65
2022/09/08 09:32:37;;;;;;;1.00;0.77;;;20.20;99.90;;;;;;5040688;28;20478;-64
2022/09/08 09:35:47;;;;;;;1.50;0.73;;;20.20;99.90;;;;;;5043217;28;20440;-66
2022/09/08 09:38:53;;;;;;;1.80;1.00;;;20.40;99.90;;;;;;5045511;28;20478;-65
2022/09/08 09:41:40;;;;;;;1.10;0.80;;;20.80;99.90;;;;;;5033728;28;20996;-65
2022/09/08 09:44:41;;;;;;;1.90;1.00;;;21.10;99.90;;;;;;5046541;28;20432;-64
2022/09/08 09:47:40;;;;;;;2.10;0.90;;;21.10;99.90;;;;;;5047658;28;20455;-65
2022/09/08 09:50:38;;;;;;;2.20;1.33;;;20.90;99.90;;;;;;5046405;28;20529;-64
2022/09/08 09:53:19;;;;;;;1.00;0.80;;;21.20;99.90;;;;;;5047775;28;20455;-65
2022/09/08 09:56:19;;;;;;;1.20;0.90;;;21.40;99.90;;;;;;5045868;28;20807;-65
2022/09/08 09:59:23;;;;;;;2.03;1.00;;;21.60;99.90;;;;;;5048116;28;20452;-65
2022/09/08 10:02:05;;;;;;;1.60;1.00;;;21.40;99.90;;;;;;5047063;28;20490;-66
2022/09/08 10:05:02;;;;;;;1.53;1.00;;;21.40;99.90;;;;;;5047653;28;20448;-64
2022/09/08 10:08:29;;;;;;;1.30;0.83;;;21.80;99.90;;;;;;5044942;28;20443;-65
2022/09/08 10:11:12;;;;;;;1.90;1.10;;;22.20;99.90;;;;;;4964629;28;20864;-65
2022/09/08 10:14:17;;;;;;;2.03;1.10;;;21.80;99.90;;;;;;5047161;28;20452;-66
2022/09/08 10:17:16;;;;;;;3.73;1.00;;;21.90;99.90;;;;;;5044453;28;20988;-66
2022/09/08 10:20:27;;;;;;;1.83;0.97;;;21.70;99.90;;;;;;5047839;28;20455;-66
2022/09/08 10:23:16;;;;;;;1.30;0.97;;;21.70;99.90;;;;;;4966075;28;21104;-65
2022/09/08 10:26:22;;;;;;;0.90;0.70;;;22.10;99.90;;;;;;4965880;28;20463;-66
2022/09/08 10:29:09;;;;;;;1.97;1.20;;;22.50;99.90;;;;;;5005349;28;20448;-65
2022/09/08 10:32:22;;;;;;;1.60;0.90;;;22.50;99.90;;;;;;5045093;28;20483;-65
2022/09/08 10:35:14;;;;;;;1.40;1.10;;;22.40;99.90;;;;;;5045987;28;20458;-66
2022/09/08 10:38:21;;;;;;;2.13;1.10;;;22.20;99.90;;;;;;5047070;28;20444;-66
2022/09/08 10:41:13;;;;;;;1.87;0.77;;;22.00;99.90;;;;;;4999725;28;20856;-66
2022/09/08 10:44:07;;;;;;;1.13;0.87;;;22.20;99.90;;;;;;5046741;28;20448;-66
2022/09/08 10:47:10;;;;;;;4.97;1.00;;;22.40;99.90;;;;;;5047102;28;20443;-65
2022/09/08 10:50:06;;;;;;;1.20;0.80;;;22.20;99.90;;;;;;5046889;28;20978;-65
2022/09/08 10:52:49;;;;;;;2.43;0.83;;;22.00;99.90;;;;;;5044061;28;20474;-66
2022/09/08 10:55:39;;;;;;;1.33;1.00;;;21.80;99.90;;;;;;5045587;28;20823;-66
2022/09/08 10:58:36;;;;;;;2.50;0.97;;;21.80;99.90;;;;;;5046764;28;20440;-65
2022/09/08 11:01:23;;;;;;;3.53;0.90;;;21.60;99.90;;;;;;5046597;28;20953;-66
2022/09/08 11:04:16;;;;;;;1.53;0.70;;;21.30;99.90;;;;;;5046154;28;20479;-65
2022/09/08 11:07:01;;;;;;;1.13;0.70;;;21.30;99.90;;;;;;5046339;28;21035;-65
2022/09/08 11:09:40;;;;;;;1.23;0.90;;;21.40;99.90;;;;;;5046672;28;20451;-65
2022/09/08 11:12:34;;;;;;;1.87;1.00;;;21.10;99.90;;;;;;5046012;28;20467;-65
2022/09/08 11:15:25;;;;;;;2.00;0.90;;;20.70;99.90;;;;;;5052459;28;20447;-65
2022/09/08 11:18:06;;;;;;;1.23;0.90;;;20.40;99.90;;;;;;5057445;28;20449;-65
2022/09/08 11:20:43;;;;;;;2.10;1.27;;;20.40;99.90;;;;;;5051003;28;20440;-65
2022/09/08 11:23:26;;;;;;;2.90;1.20;;;20.70;99.90;;;;;;5050921;28;20483;-65
2022/09/08 11:26:10;;;;;;;2.23;1.43;;;21.00;99.90;;;;;;5051116;28;20458;-65
2022/09/08 11:28:52;;;;;;;1.37;1.00;;;21.60;99.90;;;;;;5051115;28;20458;-65
2022/09/08 11:31:28;;;;;;;2.60;1.20;;;22.10;99.90;;;;;;5051055;28;20479;-66
2022/09/08 11:34:13;;;;;;;2.27;1.07;;;22.80;99.90;;;;;;5050841;28;20976;-65
2022/09/08 11:37:15;;;;;;;2.17;0.90;;;24.10;99.90;;;;;;5051137;28;20829;-65
2022/09/08 11:39:57;;;;;;;1.20;0.83;;;24.70;99.90;;;;;;5051330;28;20555;-66
2022/09/08 11:42:47;;;;;;;1.40;1.00;;;24.30;99.90;;;;;;5051034;28;20483;-65
2022/09/08 11:45:24;;;;;;;1.20;0.80;;;24.20;99.90;;;;;;5050905;28;20452;-65
2022/09/08 11:48:31;;;;;;;2.07;0.93;;;24.30;99.90;;;;;;5050286;28;20455;-65
2022/09/08 11:51:19;;;;;;;1.60;0.90;;;24.70;99.90;;;;;;5035836;28;20452;-66
2022/09/08 11:54:02;;;;;;;2.20;0.90;;;24.20;99.90;;;;;;5050289;28;20444;-66
2022/09/08 11:56:57;;;;;;;4.60;1.23;;;23.60;99.90;;;;;;5050471;28;20447;-65
2022/09/08 11:59:40;;;;;;;1.20;0.90;;;23.40;99.90;;;;;;5050554;28;20527;-65
2022/09/08 12:02:30;;;;;;;3.20;1.10;;;24.30;99.90;;;;;;5049796;28;20487;-65
2022/09/08 12:05:14;;;;;;;2.97;1.00;;;24.60;99.90;;;;;;5042955;28;20459;-65
2022/09/08 12:08:18;;;;;;;2.57;1.20;;;24.40;99.60;;;;;;5050152;28;20861;-65
2022/09/08 12:10:55;;;;;;;1.67;0.90;;;23.90;99.90;;;;;;5049993;28;20467;-65
2022/09/08 12:13:30;;;;;;;1.90;1.00;;;23.50;99.90;;;;;;5049774;28;21132;-66
2022/09/08 12:16:22;;;;;;;2.57;0.97;;;23.30;99.90;;;;;;5050030;28;20463;-66
2022/09/08 12:19:03;;;;;;;4.00;1.00;;;23.10;99.90;;;;;;5033855;28;20436;-65
2022/09/08 12:21:52;;;;;;;4.43;1.00;;;23.00;99.90;;;;;;5049925;28;20528;-65
2022/09/08 12:24:34;;;;;;;2.80;1.20;;;22.80;99.90;;;;;;5050049;28;20440;-65
2022/09/08 12:27:14;;;;;;;2.60;1.47;;;22.60;99.90;;;;;;5035195;28;20443;-66
2022/09/08 12:30:00;;;;;;;2.60;1.13;;;22.30;99.90;;;;;;5049485;28;20523;-65
2022/09/08 12:32:57;;;;;;;2.63;1.37;;;22.40;99.90;;;;;;5049904;28;20452;-65
2022/09/08 12:35:30;;;;;;;3.43;1.37;;;23.90;99.90;;;;;;5047467;28;20459;-65
2022/09/08 12:38:02;;;;;;;2.00;0.80;;;25.10;98.80;;;;;;5050201;28;20444;-65
2022/09/08 12:41:07;;;;;;;1.50;1.07;;;25.10;97.40;;;;;;5049147;28;20456;-66
2022/09/08 12:43:41;;;;;;;2.43;1.07;;;25.20;97.30;;;;;;5049756;28;20475;-66
2022/09/08 12:46:39;;;;;;;2.47;1.00;;;25.70;96.80;;;;;;5050012;28;20511;-66
2022/09/08 12:49:39;;;;;;;2.47;0.90;;;26.10;95.30;;;;;;5047500;28;20460;-67
2022/09/08 12:52:10;;;;;;;2.33;1.07;;;25.30;96.10;;;;;;5049570;28;21205;-66
2022/09/08 12:54:53;;;;;;;2.43;1.17;;;25.50;96.20;;;;;;5049849;28;20479;-66
2022/09/08 12:57:50;;;;;;;1.73;0.80;;;25.40;95.30;;;;;;5050098;28;20455;-66
2022/09/08 13:00:22;;;;;;;2.60;1.00;;;25.20;96.40;;;;;;5044554;28;20543;-66
2022/09/08 13:03:00;;;;;;;1.97;1.30;;;26.50;96.50;;;;;;5049286;28;20471;-67
2022/09/08 13:05:46;;;;;;;1.70;0.80;;;29.40;92.00;;;;;;5050541;28;20444;-67
2022/09/08 13:08:32;;;;;;;3.23;1.10;;;31.30;83.90;;;;;;5050085;28;21025;-67
2022/09/08 13:11:07;;;;;;;1.73;0.97;;;33.30;79.80;;;;;;5050198;28;20468;-64
2022/09/08 13:13:42;;;;;;;5.00;1.00;;;32.70;73.50;;;;;;5049922;28;20860;-64
2022/09/08 13:16:31;;;;;;;3.50;0.90;;;29.20;79.20;;;;;;5049582;28;20446;-64
2022/09/08 13:19:15;;;;;;;1.50;1.07;;;26.80;88.90;;;;;;5050617;28;20451;-64
2022/09/08 13:22:04;;;;;;;2.47;0.87;;;26.40;91.10;;;;;;5053724;28;20471;-64
2022/09/08 13:24:38;;;;;;;2.90;1.20;;;26.10;90.60;;;;;;5054036;28;20459;-63
2022/09/08 13:27:14;;;;;;;5.33;1.00;;;25.80;90.90;;;;;;5054089;28;20435;-63
2022/09/08 13:30:04;;;;;;;2.00;0.90;;;25.60;91.30;;;;;;5053692;28;20459;-66
2022/09/08 13:32:57;;;;;;;1.80;1.13;;;25.90;91.30;;;;;;5053452;28;20480;-63
2022/09/08 13:35:42;;;;;;;2.03;1.10;;;27.70;90.70;;;;;;5053693;28;20451;-64
2022/09/08 13:38:27;;;;;;;1.50;1.20;;;28.40;86.40;;;;;;5053360;28;20448;-64